sensor_id;sensor_type;location;lat;lon;timestamp;P1;durP1;ratioP1;P2;durP2;ratioP2
77978;SDS011;67169;50.268;8.694;2023-04-24T00:02:11;1.17;;;0.60;;
77978;SDS011;67169;50.268;8.694;2023-04-24T00:04:38;1.52;;;0.70;;
77978;SDS011;67169;50.268;8.694;2023-04-24T00:09:32;2.50;;;0.90;;
77978;SDS011;67169;50.268;8.694;2023-04-24T00:12:00;0.93;;;0.75;;
77978;SDS011;67169;50.268;8.694;2023-04-24T00:14:27;0.93;;;0.80;;
77978;SDS011;67169;50.268;8.694;2023-04-24T00:16:54;0.98;;;0.70;;
77978;SDS011;67169;50.268;8.694;2023-04-24T00:19:20;2.20;;;1.10;;
77978;SDS011;67169;50.268;8.694;2023-04-24T00:21:47;1.67;;;0.80;;
77978;SDS011;67169;50.268;8.694;2023-04-24T00:24:15;0.80;;;0.70;;
77978;SDS011;67169;50.268;8.694;2023-04-24T00:26:42;1.40;;;0.60;;
77978;SDS011;67169;50.268;8.694;2023-04-24T00:29:10;0.93;;;0.70;;
77978;SDS011;67169;50.268;8.694;2023-04-24T00:34:03;1.27;;;0.88;;
77978;SDS011;67169;50.268;8.694;2023-04-24T00:36:30;3.40;;;0.90;;
77978;SDS011;67169;50.268;8.694;2023-04-24T00:38:57;1.67;;;0.98;;
77978;SDS011;67169;50.268;8.694;2023-04-24T00:41:24;0.70;;;0.65;;
77978;SDS011;67169;50.268;8.694;2023-04-24T00:43:51;0.70;;;0.60;;
77978;SDS011;67169;50.268;8.694;2023-04-24T00:46:20;0.63;;;0.63;;
77978;SDS011;67169;50.268;8.694;2023-04-24T00:48:47;1.20;;;0.65;;
77978;SDS011;67169;50.268;8.694;2023-04-24T00:51:13;1.95;;;0.60;;
77978;SDS011;67169;50.268;8.694;2023-04-24T00:53:40;1.25;;;0.75;;
77978;SDS011;67169;50.268;8.694;2023-04-24T00:56:07;1.23;;;0.63;;
77978;SDS011;67169;50.268;8.694;2023-04-24T00:58:33;0.77;;;0.50;;
77978;SDS011;67169;50.268;8.694;2023-04-24T01:01:00;1.52;;;0.70;;
77978;SDS011;67169;50.268;8.694;2023-04-24T01:03:33;1.58;;;0.90;;
77978;SDS011;67169;50.268;8.694;2023-04-24T01:06:01;2.38;;;0.80;;
77978;SDS011;67169;50.268;8.694;2023-04-24T01:08:29;1.15;;;0.73;;
77978;SDS011;67169;50.268;8.694;2023-04-24T01:10:55;3.08;;;0.70;;
77978;SDS011;67169;50.268;8.694;2023-04-24T01:13:23;1.02;;;0.90;;
77978;SDS011;67169;50.268;8.694;2023-04-24T01:15:50;2.33;;;1.00;;
77978;SDS011;67169;50.268;8.694;2023-04-24T01:18:17;1.27;;;0.70;;
77978;SDS011;67169;50.268;8.694;2023-04-24T01:20:45;1.40;;;0.90;;
77978;SDS011;67169;50.268;8.694;2023-04-24T01:23:14;1.48;;;0.90;;
77978;SDS011;67169;50.268;8.694;2023-04-24T01:25:41;0.80;;;0.57;;
77978;SDS011;67169;50.268;8.694;2023-04-24T01:28:08;0.75;;;0.52;;
77978;SDS011;67169;50.268;8.694;2023-04-24T01:30:35;0.95;;;0.85;;
77978;SDS011;67169;50.268;8.694;2023-04-24T01:33:02;0.60;;;0.60;;
77978;SDS011;67169;50.268;8.694;2023-04-24T01:35:28;0.85;;;0.73;;
77978;SDS011;67169;50.268;8.694;2023-04-24T01:37:55;1.50;;;0.90;;
77978;SDS011;67169;50.268;8.694;2023-04-24T01:40:23;3.58;;;0.70;;
77978;SDS011;67169;50.268;8.694;2023-04-24T01:42:50;1.65;;;1.00;;
77978;SDS011;67169;50.268;8.694;2023-04-24T01:45:17;0.80;;;0.80;;
77978;SDS011;67169;50.268;8.694;2023-04-24T01:47:43;1.15;;;0.80;;
77978;SDS011;67169;50.268;8.694;2023-04-24T01:50:11;2.08;;;0.80;;
77978;SDS011;67169;50.268;8.694;2023-04-24T01:52:37;1.25;;;0.95;;
77978;SDS011;67169;50.268;8.694;2023-04-24T01:55:05;0.90;;;0.88;;
77978;SDS011;67169;50.268;8.694;2023-04-24T01:57:34;1.75;;;0.90;;
77978;SDS011;67169;50.268;8.694;2023-04-24T02:00:01;3.38;;;0.90;;
77978;SDS011;67169;50.268;8.694;2023-04-24T02:02:30;1.85;;;0.70;;
77978;SDS011;67169;50.268;8.694;2023-04-24T02:04:58;4.15;;;0.95;;
77978;SDS011;67169;50.268;8.694;2023-04-24T02:07:24;2.17;;;0.80;;
77978;SDS011;67169;50.268;8.694;2023-04-24T02:09:51;0.82;;;0.68;;
77978;SDS011;67169;50.268;8.694;2023-04-24T02:12:17;0.63;;;0.60;;
77978;SDS011;67169;50.268;8.694;2023-04-24T02:14:45;2.22;;;0.63;;
77978;SDS011;67169;50.268;8.694;2023-04-24T02:19:40;1.40;;;0.75;;
77978;SDS011;67169;50.268;8.694;2023-04-24T02:22:07;1.55;;;0.55;;
77978;SDS011;67169;50.268;8.694;2023-04-24T02:24:33;3.28;;;0.90;;
77978;SDS011;67169;50.268;8.694;2023-04-24T02:27:00;2.65;;;0.70;;
77978;SDS011;67169;50.268;8.694;2023-04-24T02:29:27;1.13;;;0.70;;
77978;SDS011;67169;50.268;8.694;2023-04-24T02:31:56;4.20;;;1.00;;
77978;SDS011;67169;50.268;8.694;2023-04-24T02:34:22;0.93;;;0.70;;
77978;SDS011;67169;50.268;8.694;2023-04-24T02:36:49;1.02;;;0.98;;
77978;SDS011;67169;50.268;8.694;2023-04-24T02:39:16;1.33;;;0.70;;
77978;SDS011;67169;50.268;8.694;2023-04-24T02:41:43;2.88;;;0.90;;
77978;SDS011;67169;50.268;8.694;2023-04-24T02:44:10;0.98;;;0.73;;
77978;SDS011;67169;50.268;8.694;2023-04-24T02:46:37;0.90;;;0.75;;
77978;SDS011;67169;50.268;8.694;2023-04-24T02:49:05;2.33;;;1.10;;
77978;SDS011;67169;50.268;8.694;2023-04-24T02:53:57;2.20;;;1.00;;
77978;SDS011;67169;50.268;8.694;2023-04-24T02:56:24;2.92;;;0.82;;
77978;SDS011;67169;50.268;8.694;2023-04-24T02:58:51;1.88;;;1.20;;
77978;SDS011;67169;50.268;8.694;2023-04-24T03:01:17;2.10;;;1.27;;
77978;SDS011;67169;50.268;8.694;2023-04-24T03:03:44;2.80;;;1.58;;
77978;SDS011;67169;50.268;8.694;2023-04-24T03:06:12;3.15;;;1.00;;
77978;SDS011;67169;50.268;8.694;2023-04-24T03:11:05;2.40;;;0.90;;
77978;SDS011;67169;50.268;8.694;2023-04-24T03:13:31;2.65;;;0.98;;
77978;SDS011;67169;50.268;8.694;2023-04-24T03:15:58;1.65;;;1.30;;
77978;SDS011;67169;50.268;8.694;2023-04-24T03:18:24;4.40;;;1.20;;
77978;SDS011;67169;50.268;8.694;2023-04-24T03:20:51;3.40;;;1.30;;
77978;SDS011;67169;50.268;8.694;2023-04-24T03:23:19;5.22;;;1.30;;
77978;SDS011;67169;50.268;8.694;2023-04-24T03:28:13;1.40;;;0.80;;
77978;SDS011;67169;50.268;8.694;2023-04-24T03:30:40;2.53;;;1.30;;
77978;SDS011;67169;50.268;8.694;2023-04-24T03:33:06;2.13;;;1.02;;
77978;SDS011;67169;50.268;8.694;2023-04-24T03:35:33;1.50;;;0.95;;
77978;SDS011;67169;50.268;8.694;2023-04-24T03:37:59;3.55;;;1.20;;
77978;SDS011;67169;50.268;8.694;2023-04-24T03:40:27;2.70;;;1.02;;
77978;SDS011;67169;50.268;8.694;2023-04-24T03:42:54;1.58;;;1.23;;
77978;SDS011;67169;50.268;8.694;2023-04-24T03:45:21;2.10;;;1.13;;
77978;SDS011;67169;50.268;8.694;2023-04-24T03:47:47;1.30;;;1.00;;
77978;SDS011;67169;50.268;8.694;2023-04-24T03:50:14;1.90;;;0.95;;
77978;SDS011;67169;50.268;8.694;2023-04-24T03:52:40;1.65;;;1.10;;
77978;SDS011;67169;50.268;8.694;2023-04-24T03:55:07;2.35;;;1.20;;
77978;SDS011;67169;50.268;8.694;2023-04-24T03:57:39;4.53;;;1.20;;
77978;SDS011;67169;50.268;8.694;2023-04-24T04:00:06;2.95;;;1.20;;
77978;SDS011;67169;50.268;8.694;2023-04-24T04:05:00;2.53;;;0.95;;
77978;SDS011;67169;50.268;8.694;2023-04-24T04:07:27;3.63;;;1.48;;
77978;SDS011;67169;50.268;8.694;2023-04-24T04:09:54;1.58;;;1.10;;
77978;SDS011;67169;50.268;8.694;2023-04-24T04:12:21;1.30;;;1.13;;
77978;SDS011;67169;50.268;8.694;2023-04-24T04:14:49;1.58;;;1.05;;
77978;SDS011;67169;50.268;8.694;2023-04-24T04:19:42;2.38;;;1.10;;
77978;SDS011;67169;50.268;8.694;2023-04-24T04:22:08;2.22;;;0.98;;
77978;SDS011;67169;50.268;8.694;2023-04-24T04:24:35;1.48;;;1.10;;
77978;SDS011;67169;50.268;8.694;2023-04-24T04:27:03;2.13;;;0.90;;
77978;SDS011;67169;50.268;8.694;2023-04-24T04:29:29;2.83;;;1.40;;
77978;SDS011;67169;50.268;8.694;2023-04-24T04:31:57;2.10;;;1.20;;
77978;SDS011;67169;50.268;8.694;2023-04-24T04:34:24;1.00;;;0.90;;
77978;SDS011;67169;50.268;8.694;2023-04-24T04:36:51;1.10;;;0.95;;
77978;SDS011;67169;50.268;8.694;2023-04-24T04:39:17;2.25;;;1.02;;
77978;SDS011;67169;50.268;8.694;2023-04-24T04:41:44;2.25;;;1.20;;
77978;SDS011;67169;50.268;8.694;2023-04-24T04:44:13;1.23;;;1.08;;
77978;SDS011;67169;50.268;8.694;2023-04-24T04:46:40;0.98;;;0.80;;
77978;SDS011;67169;50.268;8.694;2023-04-24T04:49:08;1.30;;;0.77;;
77978;SDS011;67169;50.268;8.694;2023-04-24T04:51:35;1.83;;;0.93;;
77978;SDS011;67169;50.268;8.694;2023-04-24T04:54:02;1.42;;;1.17;;
77978;SDS011;67169;50.268;8.694;2023-04-24T04:56:29;1.70;;;0.95;;
77978;SDS011;67169;50.268;8.694;2023-04-24T04:58:55;1.13;;;1.02;;
77978;SDS011;67169;50.268;8.694;2023-04-24T05:01:22;1.33;;;1.10;;
77978;SDS011;67169;50.268;8.694;2023-04-24T05:03:49;1.63;;;1.23;;
77978;SDS011;67169;50.268;8.694;2023-04-24T05:06:17;1.10;;;1.00;;
77978;SDS011;67169;50.268;8.694;2023-04-24T05:13:36;1.35;;;1.10;;
77978;SDS011;67169;50.268;8.694;2023-04-24T05:16:03;1.63;;;0.60;;
77978;SDS011;67169;50.268;8.694;2023-04-24T05:18:30;1.00;;;0.70;;
77978;SDS011;67169;50.268;8.694;2023-04-24T05:20:56;1.45;;;0.80;;
77978;SDS011;67169;50.268;8.694;2023-04-24T05:23:24;3.10;;;0.85;;
77978;SDS011;67169;50.268;8.694;2023-04-24T05:25:51;0.88;;;0.75;;
77978;SDS011;67169;50.268;8.694;2023-04-24T05:28:17;2.97;;;0.90;;
77978;SDS011;67169;50.268;8.694;2023-04-24T05:30:44;1.00;;;0.70;;
77978;SDS011;67169;50.268;8.694;2023-04-24T05:33:11;1.98;;;0.68;;
77978;SDS011;67169;50.268;8.694;2023-04-24T05:35:39;3.15;;;0.82;;
77978;SDS011;67169;50.268;8.694;2023-04-24T05:38:10;1.25;;;0.70;;
77978;SDS011;67169;50.268;8.694;2023-04-24T05:40:38;1.40;;;0.77;;
77978;SDS011;67169;50.268;8.694;2023-04-24T05:43:05;1.10;;;0.73;;
77978;SDS011;67169;50.268;8.694;2023-04-24T05:45:31;0.82;;;0.80;;
77978;SDS011;67169;50.268;8.694;2023-04-24T05:48:00;0.85;;;0.70;;
77978;SDS011;67169;50.268;8.694;2023-04-24T05:50:27;1.13;;;0.80;;
77978;SDS011;67169;50.268;8.694;2023-04-24T05:52:54;1.77;;;0.90;;
77978;SDS011;67169;50.268;8.694;2023-04-24T05:55:23;1.17;;;1.02;;
77978;SDS011;67169;50.268;8.694;2023-04-24T05:57:51;0.82;;;0.73;;
77978;SDS011;67169;50.268;8.694;2023-04-24T06:00:17;1.60;;;0.90;;
77978;SDS011;67169;50.268;8.694;2023-04-24T06:02:45;0.70;;;0.70;;
77978;SDS011;67169;50.268;8.694;2023-04-24T06:05:12;1.40;;;1.13;;
77978;SDS011;67169;50.268;8.694;2023-04-24T06:07:38;2.97;;;1.27;;
77978;SDS011;67169;50.268;8.694;2023-04-24T06:10:05;2.22;;;1.38;;
77978;SDS011;67169;50.268;8.694;2023-04-24T06:12:32;3.30;;;1.60;;
77978;SDS011;67169;50.268;8.694;2023-04-24T06:15:00;2.40;;;1.83;;
77978;SDS011;67169;50.268;8.694;2023-04-24T06:17:27;3.50;;;1.65;;
77978;SDS011;67169;50.268;8.694;2023-04-24T06:19:53;3.47;;;1.70;;
77978;SDS011;67169;50.268;8.694;2023-04-24T06:22:20;3.33;;;1.70;;
77978;SDS011;67169;50.268;8.694;2023-04-24T06:24:46;3.20;;;2.15;;
77978;SDS011;67169;50.268;8.694;2023-04-24T06:27:13;2.65;;;1.90;;
77978;SDS011;67169;50.268;8.694;2023-04-24T06:29:40;3.28;;;1.73;;
77978;SDS011;67169;50.268;8.694;2023-04-24T06:32:08;1.77;;;1.45;;
77978;SDS011;67169;50.268;8.694;2023-04-24T06:37:01;3.80;;;1.40;;
77978;SDS011;67169;50.268;8.694;2023-04-24T06:39:28;2.25;;;1.77;;
77978;SDS011;67169;50.268;8.694;2023-04-24T06:41:54;2.65;;;1.58;;
77978;SDS011;67169;50.268;8.694;2023-04-24T06:44:21;2.42;;;1.35;;
77978;SDS011;67169;50.268;8.694;2023-04-24T06:46:48;5.97;;;1.90;;
77978;SDS011;67169;50.268;8.694;2023-04-24T06:49:16;4.00;;;2.58;;
77978;SDS011;67169;50.268;8.694;2023-04-24T06:51:42;3.70;;;1.70;;
77978;SDS011;67169;50.268;8.694;2023-04-24T06:54:09;2.40;;;1.90;;
77978;SDS011;67169;50.268;8.694;2023-04-24T06:56:36;4.88;;;2.42;;
77978;SDS011;67169;50.268;8.694;2023-04-24T06:59:02;2.63;;;2.05;;
77978;SDS011;67169;50.268;8.694;2023-04-24T07:01:29;3.05;;;1.80;;
77978;SDS011;67169;50.268;8.694;2023-04-24T07:03:56;2.15;;;1.95;;
77978;SDS011;67169;50.268;8.694;2023-04-24T07:06:24;2.53;;;1.98;;
77978;SDS011;67169;50.268;8.694;2023-04-24T07:08:52;6.43;;;2.40;;
77978;SDS011;67169;50.268;8.694;2023-04-24T07:11:19;2.50;;;2.28;;
77978;SDS011;67169;50.268;8.694;2023-04-24T07:13:46;3.47;;;2.38;;
77978;SDS011;67169;50.268;8.694;2023-04-24T07:16:12;4.35;;;2.55;;
77978;SDS011;67169;50.268;8.694;2023-04-24T07:18:39;2.78;;;2.38;;
77978;SDS011;67169;50.268;8.694;2023-04-24T07:21:06;3.58;;;2.05;;
77978;SDS011;67169;50.268;8.694;2023-04-24T07:23:34;2.50;;;1.90;;
77978;SDS011;67169;50.268;8.694;2023-04-24T07:28:27;2.60;;;1.73;;
77978;SDS011;67169;50.268;8.694;2023-04-24T07:30:56;2.90;;;2.13;;
77978;SDS011;67169;50.268;8.694;2023-04-24T07:33:24;2.35;;;2.10;;
77978;SDS011;67169;50.268;8.694;2023-04-24T07:35:51;1.90;;;1.70;;
77978;SDS011;67169;50.268;8.694;2023-04-24T07:38:18;2.25;;;2.00;;
77978;SDS011;67169;50.268;8.694;2023-04-24T07:40:48;3.55;;;1.90;;
77978;SDS011;67169;50.268;8.694;2023-04-24T07:43:15;1.55;;;1.45;;
77978;SDS011;67169;50.268;8.694;2023-04-24T07:45:41;2.25;;;1.50;;
77978;SDS011;67169;50.268;8.694;2023-04-24T07:48:11;2.55;;;1.58;;
77978;SDS011;67169;50.268;8.694;2023-04-24T07:50:39;3.55;;;1.63;;
77978;SDS011;67169;50.268;8.694;2023-04-24T07:53:06;3.83;;;1.60;;
77978;SDS011;67169;50.268;8.694;2023-04-24T07:55:33;1.50;;;1.40;;
77978;SDS011;67169;50.268;8.694;2023-04-24T07:58:01;2.20;;;1.90;;
77978;SDS011;67169;50.268;8.694;2023-04-24T08:00:27;2.28;;;1.80;;
77978;SDS011;67169;50.268;8.694;2023-04-24T08:02:54;2.85;;;2.20;;
77978;SDS011;67169;50.268;8.694;2023-04-24T08:05:21;1.90;;;1.38;;
77978;SDS011;67169;50.268;8.694;2023-04-24T08:07:47;3.67;;;1.48;;
77978;SDS011;67169;50.268;8.694;2023-04-24T08:10:15;2.95;;;1.90;;
77978;SDS011;67169;50.268;8.694;2023-04-24T08:12:42;3.17;;;1.60;;
77978;SDS011;67169;50.268;8.694;2023-04-24T08:15:10;2.85;;;1.42;;
77978;SDS011;67169;50.268;8.694;2023-04-24T08:17:37;2.28;;;1.60;;
77978;SDS011;67169;50.268;8.694;2023-04-24T08:20:04;1.55;;;1.15;;
77978;SDS011;67169;50.268;8.694;2023-04-24T08:22:35;2.78;;;1.48;;
77978;SDS011;67169;50.268;8.694;2023-04-24T08:25:01;3.00;;;2.13;;
77978;SDS011;67169;50.268;8.694;2023-04-24T08:27:28;1.58;;;1.30;;
77978;SDS011;67169;50.268;8.694;2023-04-24T08:29:55;2.63;;;1.70;;
77978;SDS011;67169;50.268;8.694;2023-04-24T08:32:23;3.53;;;2.05;;
77978;SDS011;67169;50.268;8.694;2023-04-24T08:34:49;1.83;;;1.63;;
77978;SDS011;67169;50.268;8.694;2023-04-24T08:37:17;4.32;;;1.20;;
77978;SDS011;67169;50.268;8.694;2023-04-24T08:39:44;1.90;;;1.17;;
77978;SDS011;67169;50.268;8.694;2023-04-24T08:42:11;1.85;;;1.40;;
77978;SDS011;67169;50.268;8.694;2023-04-24T08:44:39;1.85;;;0.90;;
77978;SDS011;67169;50.268;8.694;2023-04-24T08:47:07;1.38;;;1.27;;
77978;SDS011;67169;50.268;8.694;2023-04-24T08:49:36;2.55;;;1.60;;
77978;SDS011;67169;50.268;8.694;2023-04-24T08:52:03;0.85;;;0.85;;
77978;SDS011;67169;50.268;8.694;2023-04-24T08:54:31;2.22;;;1.67;;
77978;SDS011;67169;50.268;8.694;2023-04-24T08:57:00;1.73;;;1.35;;
77978;SDS011;67169;50.268;8.694;2023-04-24T08:59:28;1.48;;;1.23;;
77978;SDS011;67169;50.268;8.694;2023-04-24T09:01:55;1.23;;;1.13;;
77978;SDS011;67169;50.268;8.694;2023-04-24T09:04:23;2.00;;;1.00;;
77978;SDS011;67169;50.268;8.694;2023-04-24T09:06:52;1.23;;;0.98;;
77978;SDS011;67169;50.268;8.694;2023-04-24T09:09:22;1.92;;;1.45;;
77978;SDS011;67169;50.268;8.694;2023-04-24T09:11:49;2.85;;;1.58;;
77978;SDS011;67169;50.268;8.694;2023-04-24T09:14:18;1.55;;;1.23;;
77978;SDS011;67169;50.268;8.694;2023-04-24T09:16:45;1.73;;;1.63;;
77978;SDS011;67169;50.268;8.694;2023-04-24T09:19:12;1.58;;;1.38;;
77978;SDS011;67169;50.268;8.694;2023-04-24T09:21:39;1.90;;;1.50;;
77978;SDS011;67169;50.268;8.694;2023-04-24T09:24:15;2.78;;;1.42;;
77978;SDS011;67169;50.268;8.694;2023-04-24T09:26:43;2.65;;;1.58;;
77978;SDS011;67169;50.268;8.694;2023-04-24T09:29:14;1.30;;;1.17;;
77978;SDS011;67169;50.268;8.694;2023-04-24T09:31:42;1.70;;;1.48;;
77978;SDS011;67169;50.268;8.694;2023-04-24T09:34:09;3.00;;;1.50;;
77978;SDS011;67169;50.268;8.694;2023-04-24T09:36:38;2.33;;;1.70;;
77978;SDS011;67169;50.268;8.694;2023-04-24T09:39:07;2.28;;;1.38;;
77978;SDS011;67169;50.268;8.694;2023-04-24T09:41:43;3.90;;;1.70;;
77978;SDS011;67169;50.268;8.694;2023-04-24T09:44:11;3.67;;;1.73;;
77978;SDS011;67169;50.268;8.694;2023-04-24T09:46:39;1.73;;;1.40;;
77978;SDS011;67169;50.268;8.694;2023-04-24T09:49:07;1.98;;;1.25;;
77978;SDS011;67169;50.268;8.694;2023-04-24T09:51:36;2.25;;;1.38;;
77978;SDS011;67169;50.268;8.694;2023-04-24T09:54:04;1.20;;;1.10;;
77978;SDS011;67169;50.268;8.694;2023-04-24T09:56:39;2.05;;;1.23;;
77978;SDS011;67169;50.268;8.694;2023-04-24T09:59:09;1.42;;;1.33;;
77978;SDS011;67169;50.268;8.694;2023-04-24T10:01:35;3.03;;;1.42;;
77978;SDS011;67169;50.268;8.694;2023-04-24T10:04:03;1.70;;;1.52;;
77978;SDS011;67169;50.268;8.694;2023-04-24T10:06:32;2.60;;;1.50;;
77978;SDS011;67169;50.268;8.694;2023-04-24T10:08:59;1.42;;;1.02;;
77978;SDS011;67169;50.268;8.694;2023-04-24T10:11:26;3.38;;;1.10;;
77978;SDS011;67169;50.268;8.694;2023-04-24T10:13:55;2.65;;;2.15;;
77978;SDS011;67169;50.268;8.694;2023-04-24T10:16:22;1.50;;;1.40;;
77978;SDS011;67169;50.268;8.694;2023-04-24T10:18:49;6.45;;;2.10;;
77978;SDS011;67169;50.268;8.694;2023-04-24T10:21:16;3.17;;;1.90;;
77978;SDS011;67169;50.268;8.694;2023-04-24T10:23:43;3.05;;;1.50;;
77978;SDS011;67169;50.268;8.694;2023-04-24T10:26:11;2.63;;;1.50;;
77978;SDS011;67169;50.268;8.694;2023-04-24T10:28:42;1.58;;;1.45;;
77978;SDS011;67169;50.268;8.694;2023-04-24T10:31:12;1.77;;;1.30;;
77978;SDS011;67169;50.268;8.694;2023-04-24T10:33:39;2.28;;;1.08;;
77978;SDS011;67169;50.268;8.694;2023-04-24T10:36:08;1.65;;;1.05;;
77978;SDS011;67169;50.268;8.694;2023-04-24T10:38:36;1.08;;;1.00;;
77978;SDS011;67169;50.268;8.694;2023-04-24T10:41:07;1.45;;;0.90;;
77978;SDS011;67169;50.268;8.694;2023-04-24T10:43:39;1.27;;;0.85;;
77978;SDS011;67169;50.268;8.694;2023-04-24T10:46:06;1.70;;;0.98;;
77978;SDS011;67169;50.268;8.694;2023-04-24T10:48:35;2.08;;;0.70;;
77978;SDS011;67169;50.268;8.694;2023-04-24T10:51:01;0.88;;;0.80;;
77978;SDS011;67169;50.268;8.694;2023-04-24T10:53:29;1.35;;;1.17;;
77978;SDS011;67169;50.268;8.694;2023-04-24T10:55:58;0.50;;;0.40;;
77978;SDS011;67169;50.268;8.694;2023-04-24T10:58:35;1.02;;;0.70;;
77978;SDS011;67169;50.268;8.694;2023-04-24T11:01:03;0.77;;;0.70;;
77978;SDS011;67169;50.268;8.694;2023-04-24T11:03:30;2.30;;;0.95;;
77978;SDS011;67169;50.268;8.694;2023-04-24T11:06:00;2.22;;;1.10;;
77978;SDS011;67169;50.268;8.694;2023-04-24T11:08:29;1.50;;;0.80;;
77978;SDS011;67169;50.268;8.694;2023-04-24T11:10:58;1.02;;;0.57;;
77978;SDS011;67169;50.268;8.694;2023-04-24T11:13:31;1.75;;;0.52;;
77978;SDS011;67169;50.268;8.694;2023-04-24T11:16:32;2.90;;;1.45;;
77978;SDS011;67169;50.268;8.694;2023-04-24T11:19:00;0.60;;;0.55;;
77978;SDS011;67169;50.268;8.694;2023-04-24T11:21:32;1.17;;;0.50;;
77978;SDS011;67169;50.268;8.694;2023-04-24T11:24:24;1.00;;;0.68;;
77978;SDS011;67169;50.268;8.694;2023-04-24T11:26:53;0.60;;;0.60;;
77978;SDS011;67169;50.268;8.694;2023-04-24T11:29:21;1.05;;;0.60;;
77978;SDS011;67169;50.268;8.694;2023-04-24T11:31:48;0.40;;;0.40;;
77978;SDS011;67169;50.268;8.694;2023-04-24T11:34:16;0.75;;;0.70;;
77978;SDS011;67169;50.268;8.694;2023-04-24T11:36:45;0.85;;;0.50;;
77978;SDS011;67169;50.268;8.694;2023-04-24T11:39:12;0.90;;;0.50;;
77978;SDS011;67169;50.268;8.694;2023-04-24T11:41:39;0.60;;;0.45;;
77978;SDS011;67169;50.268;8.694;2023-04-24T11:44:08;0.63;;;0.60;;
77978;SDS011;67169;50.268;8.694;2023-04-24T11:46:35;0.70;;;0.60;;
77978;SDS011;67169;50.268;8.694;2023-04-24T11:49:03;0.70;;;0.70;;
77978;SDS011;67169;50.268;8.694;2023-04-24T11:51:30;1.70;;;0.90;;
77978;SDS011;67169;50.268;8.694;2023-04-24T11:53:58;0.60;;;0.55;;
77978;SDS011;67169;50.268;8.694;2023-04-24T11:56:25;1.70;;;0.90;;
77978;SDS011;67169;50.268;8.694;2023-04-24T11:58:52;0.80;;;0.80;;
77978;SDS011;67169;50.268;8.694;2023-04-24T12:01:19;1.40;;;0.80;;
77978;SDS011;67169;50.268;8.694;2023-04-24T12:03:47;2.03;;;0.75;;
77978;SDS011;67169;50.268;8.694;2023-04-24T12:06:15;0.73;;;0.73;;
77978;SDS011;67169;50.268;8.694;2023-04-24T12:08:45;2.47;;;1.40;;
77978;SDS011;67169;50.268;8.694;2023-04-24T12:11:14;1.00;;;0.80;;
77978;SDS011;67169;50.268;8.694;2023-04-24T12:13:42;1.00;;;0.75;;
77978;SDS011;67169;50.268;8.694;2023-04-24T12:16:10;1.77;;;1.20;;
77978;SDS011;67169;50.268;8.694;2023-04-24T12:18:41;1.45;;;0.80;;
77978;SDS011;67169;50.268;8.694;2023-04-24T12:21:18;1.10;;;0.70;;
77978;SDS011;67169;50.268;8.694;2023-04-24T12:23:46;1.15;;;0.93;;
77978;SDS011;67169;50.268;8.694;2023-04-24T12:26:17;1.42;;;1.33;;
77978;SDS011;67169;50.268;8.694;2023-04-24T12:28:46;0.70;;;0.70;;
77978;SDS011;67169;50.268;8.694;2023-04-24T12:31:14;1.65;;;1.05;;
77978;SDS011;67169;50.268;8.694;2023-04-24T12:33:41;0.90;;;0.90;;
77978;SDS011;67169;50.268;8.694;2023-04-24T12:38:37;2.75;;;1.10;;
77978;SDS011;67169;50.268;8.694;2023-04-24T12:41:06;0.70;;;0.65;;
77978;SDS011;67169;50.268;8.694;2023-04-24T12:43:35;2.45;;;0.98;;
77978;SDS011;67169;50.268;8.694;2023-04-24T12:46:02;1.13;;;1.02;;
77978;SDS011;67169;50.268;8.694;2023-04-24T12:48:30;1.48;;;0.95;;
77978;SDS011;67169;50.268;8.694;2023-04-24T12:50:57;2.50;;;1.10;;
77978;SDS011;67169;50.268;8.694;2023-04-24T12:53:26;2.20;;;1.25;;
77978;SDS011;67169;50.268;8.694;2023-04-24T12:55:54;2.17;;;1.40;;
77978;SDS011;67169;50.268;8.694;2023-04-24T12:58:21;2.33;;;1.40;;
77978;SDS011;67169;50.268;8.694;2023-04-24T13:00:49;2.47;;;1.90;;
77978;SDS011;67169;50.268;8.694;2023-04-24T13:03:16;2.25;;;1.80;;
77978;SDS011;67169;50.268;8.694;2023-04-24T13:05:42;3.08;;;1.70;;
77978;SDS011;67169;50.268;8.694;2023-04-24T13:08:09;2.05;;;1.00;;
77978;SDS011;67169;50.268;8.694;2023-04-24T13:10:37;1.20;;;1.08;;
77978;SDS011;67169;50.268;8.694;2023-04-24T13:13:05;3.25;;;1.30;;
77978;SDS011;67169;50.268;8.694;2023-04-24T13:15:32;2.45;;;1.63;;
77978;SDS011;67169;50.268;8.694;2023-04-24T13:18:00;1.13;;;1.00;;
77978;SDS011;67169;50.268;8.694;2023-04-24T13:20:27;3.72;;;1.05;;
77978;SDS011;67169;50.268;8.694;2023-04-24T13:22:54;2.47;;;1.27;;
77978;SDS011;67169;50.268;8.694;2023-04-24T13:25:20;1.63;;;1.25;;
77978;SDS011;67169;50.268;8.694;2023-04-24T13:30:14;1.65;;;1.27;;
77978;SDS011;67169;50.268;8.694;2023-04-24T13:32:41;1.67;;;1.30;;
77978;SDS011;67169;50.268;8.694;2023-04-24T13:35:09;1.85;;;1.60;;
77978;SDS011;67169;50.268;8.694;2023-04-24T13:37:36;2.22;;;1.55;;
77978;SDS011;67169;50.268;8.694;2023-04-24T13:40:04;2.08;;;1.67;;
77978;SDS011;67169;50.268;8.694;2023-04-24T13:44:58;1.45;;;1.33;;
77978;SDS011;67169;50.268;8.694;2023-04-24T13:47:25;3.95;;;1.60;;
77978;SDS011;67169;50.268;8.694;2023-04-24T13:49:51;3.33;;;1.88;;
77978;SDS011;67169;50.268;8.694;2023-04-24T13:52:20;2.47;;;1.85;;
77978;SDS011;67169;50.268;8.694;2023-04-24T13:54:47;4.97;;;2.00;;
77978;SDS011;67169;50.268;8.694;2023-04-24T13:57:14;4.28;;;2.33;;
77978;SDS011;67169;50.268;8.694;2023-04-24T13:59:41;3.30;;;1.75;;
77978;SDS011;67169;50.268;8.694;2023-04-24T14:02:08;2.00;;;1.60;;
77978;SDS011;67169;50.268;8.694;2023-04-24T14:04:34;4.18;;;2.17;;
77978;SDS011;67169;50.268;8.694;2023-04-24T14:07:01;2.45;;;1.98;;
77978;SDS011;67169;50.268;8.694;2023-04-24T14:09:29;5.57;;;2.33;;
77978;SDS011;67169;50.268;8.694;2023-04-24T14:11:55;4.00;;;1.90;;
77978;SDS011;67169;50.268;8.694;2023-04-24T14:14:22;4.78;;;2.60;;
77978;SDS011;67169;50.268;8.694;2023-04-24T14:16:49;2.58;;;1.70;;
77978;SDS011;67169;50.268;8.694;2023-04-24T14:19:15;3.25;;;1.98;;
77978;SDS011;67169;50.268;8.694;2023-04-24T14:21:42;1.98;;;1.80;;
77978;SDS011;67169;50.268;8.694;2023-04-24T14:24:08;2.38;;;1.95;;
77978;SDS011;67169;50.268;8.694;2023-04-24T14:26:36;2.90;;;2.42;;
77978;SDS011;67169;50.268;8.694;2023-04-24T14:29:03;2.67;;;1.75;;
77978;SDS011;67169;50.268;8.694;2023-04-24T14:31:29;2.63;;;2.03;;
77978;SDS011;67169;50.268;8.694;2023-04-24T14:33:56;3.80;;;2.00;;
77978;SDS011;67169;50.268;8.694;2023-04-24T14:36:23;2.55;;;1.75;;
77978;SDS011;67169;50.268;8.694;2023-04-24T14:38:50;2.42;;;2.17;;
77978;SDS011;67169;50.268;8.694;2023-04-24T14:41:16;3.47;;;2.10;;
77978;SDS011;67169;50.268;8.694;2023-04-24T14:43:44;3.67;;;2.22;;
77978;SDS011;67169;50.268;8.694;2023-04-24T14:46:11;4.20;;;2.08;;
77978;SDS011;67169;50.268;8.694;2023-04-24T14:48:37;3.72;;;2.30;;
77978;SDS011;67169;50.268;8.694;2023-04-24T14:51:04;4.15;;;2.38;;
77978;SDS011;67169;50.268;8.694;2023-04-24T14:53:31;3.33;;;2.00;;
77978;SDS011;67169;50.268;8.694;2023-04-24T14:55:57;5.22;;;2.55;;
77978;SDS011;67169;50.268;8.694;2023-04-24T14:58:24;3.65;;;2.50;;
77978;SDS011;67169;50.268;8.694;2023-04-24T15:00:52;4.90;;;2.38;;
77978;SDS011;67169;50.268;8.694;2023-04-24T15:03:19;4.10;;;2.63;;
77978;SDS011;67169;50.268;8.694;2023-04-24T15:05:46;4.70;;;3.22;;
77978;SDS011;67169;50.268;8.694;2023-04-24T15:08:13;6.22;;;3.65;;
77978;SDS011;67169;50.268;8.694;2023-04-24T15:10:39;4.82;;;2.28;;
77978;SDS011;67169;50.268;8.694;2023-04-24T15:13:07;4.47;;;2.05;;
77978;SDS011;67169;50.268;8.694;2023-04-24T15:15:33;4.43;;;2.00;;
77978;SDS011;67169;50.268;8.694;2023-04-24T15:18:01;2.97;;;2.20;;
77978;SDS011;67169;50.268;8.694;2023-04-24T15:20:28;4.45;;;2.25;;
77978;SDS011;67169;50.268;8.694;2023-04-24T15:22:54;2.05;;;1.70;;
77978;SDS011;67169;50.268;8.694;2023-04-24T15:25:21;7.03;;;2.90;;
77978;SDS011;67169;50.268;8.694;2023-04-24T15:27:48;3.15;;;1.63;;